createdAt,value
2019-03-20T00:01:44.666Z,8.87
2019-03-20T00:04:13.026Z,6.20
2019-03-20T00:06:41.302Z,5.90
2019-03-20T00:09:09.562Z,5.70
2019-03-20T00:11:37.854Z,5.70
2019-03-20T00:14:06.093Z,5.40
2019-03-20T00:16:34.387Z,5.12
2019-03-20T00:19:02.637Z,4.90
2019-03-20T00:21:30.975Z,4.70
2019-03-20T00:23:59.231Z,6.53
2019-03-20T00:26:27.507Z,5.00
2019-03-20T00:32:06.889Z,4.47
2019-03-20T00:34:35.155Z,4.60
2019-03-20T00:37:03.418Z,5.70
2019-03-20T00:39:31.689Z,4.00
2019-03-20T00:48:16.794Z,5.37
2019-03-20T00:50:45.060Z,4.67
2019-03-20T00:53:13.341Z,5.37
2019-03-20T00:55:41.614Z,5.33
2019-03-20T00:58:10.248Z,5.35
2019-03-20T01:04:11.398Z,5.83
2019-03-20T01:06:39.675Z,3.70
2019-03-20T01:09:08.024Z,4.70
2019-03-20T01:11:36.299Z,4.03
2019-03-20T01:14:04.642Z,4.83
2019-03-20T01:20:00.333Z,3.70
2019-03-20T01:22:28.560Z,4.03
2019-03-20T01:27:47.219Z,4.13
2019-03-20T01:33:36.952Z,4.07
2019-03-20T01:36:05.239Z,4.57
2019-03-20T01:41:20.820Z,3.85
2019-03-20T01:43:49.093Z,6.08
2019-03-20T01:46:18.184Z,4.50
2019-03-20T01:48:46.458Z,4.78
2019-03-20T01:54:20.137Z,3.65
2019-03-20T01:56:48.410Z,3.50
2019-03-20T01:59:16.665Z,2.87
2019-03-20T02:01:44.939Z,4.73
2019-03-20T02:04:13.205Z,3.55
2019-03-20T02:06:41.480Z,3.60
2019-03-20T02:09:09.756Z,4.67
2019-03-20T02:17:33.405Z,4.33
2019-03-20T02:20:01.668Z,3.30
2019-03-20T02:22:29.938Z,3.93
2019-03-20T02:24:58.213Z,4.00
2019-03-20T02:27:26.492Z,3.05
2019-03-20T02:29:54.797Z,4.03
2019-03-20T02:32:23.082Z,3.40
2019-03-20T02:34:51.377Z,3.90
2019-03-20T02:37:19.633Z,3.37
2019-03-20T02:39:47.905Z,3.60
2019-03-20T02:42:16.186Z,3.67
2019-03-20T02:44:44.452Z,3.77
2019-03-20T02:47:12.705Z,4.40
2019-03-20T02:49:40.978Z,3.92
2019-03-20T02:52:09.257Z,3.17
2019-03-20T02:57:24.845Z,3.30
2019-03-20T02:59:53.113Z,3.23
2019-03-20T03:02:21.442Z,3.80
2019-03-20T03:04:49.717Z,3.50
2019-03-20T03:07:17.979Z,3.12
2019-03-20T03:09:46.247Z,3.42
2019-03-20T03:12:14.508Z,3.37
2019-03-20T03:14:42.787Z,3.47
2019-03-20T03:17:11.138Z,3.13
2019-03-20T03:19:39.398Z,2.73
2019-03-20T03:22:07.682Z,3.33
2019-03-20T03:24:35.952Z,2.75
2019-03-20T03:27:04.233Z,3.50
2019-03-20T03:29:32.488Z,3.10
2019-03-20T03:32:00.768Z,3.47
2019-03-20T03:34:29.022Z,3.33
2019-03-20T03:36:57.302Z,3.67
2019-03-20T03:39:25.570Z,3.10
2019-03-20T03:41:53.854Z,3.55
2019-03-20T03:44:22.122Z,3.27
2019-03-20T03:46:50.385Z,3.63
2019-03-20T03:49:18.644Z,4.13
2019-03-20T03:51:46.956Z,3.60
2019-03-20T03:54:15.195Z,3.60
2019-03-20T03:56:43.469Z,3.90
2019-03-20T03:59:11.727Z,3.30
2019-03-20T04:01:40.013Z,3.80
2019-03-20T04:04:08.275Z,3.17
2019-03-20T04:06:36.561Z,3.83
2019-03-20T04:12:26.196Z,4.90
2019-03-20T04:14:54.468Z,4.50
2019-03-20T04:17:42.079Z,4.67
2019-03-20T04:23:31.215Z,5.12
2019-03-20T04:28:57.711Z,5.55
2019-03-20T04:31:25.952Z,4.43
2019-03-20T04:33:54.212Z,6.08
2019-03-20T04:36:22.487Z,5.27
2019-03-20T04:38:50.771Z,6.70
2019-03-20T04:41:19.041Z,5.23
2019-03-20T04:43:47.301Z,7.10
2019-03-20T04:46:15.577Z,5.20
2019-03-20T04:48:43.838Z,5.50
2019-03-20T04:51:12.118Z,5.37
2019-03-20T04:53:40.490Z,6.67
2019-03-20T04:56:08.769Z,6.67
2019-03-20T04:58:37.047Z,7.87
2019-03-20T05:01:05.389Z,6.97
2019-03-20T05:03:33.671Z,7.93
2019-03-20T05:06:01.941Z,6.63
2019-03-20T05:08:30.248Z,8.60
2019-03-20T05:10:58.491Z,8.40
2019-03-20T05:13:26.768Z,6.85
2019-03-20T05:15:55.033Z,11.33
2019-03-20T05:18:23.328Z,8.80
2019-03-20T05:20:51.584Z,9.17
2019-03-20T05:26:25.786Z,8.93
2019-03-20T05:31:51.390Z,11.03
2019-03-20T05:34:19.663Z,11.80
2019-03-20T05:36:47.928Z,11.20
2019-03-20T05:39:16.209Z,12.77
2019-03-20T05:41:44.485Z,12.27
2019-03-20T05:44:12.769Z,13.47
2019-03-20T05:46:41.037Z,15.40
2019-03-20T05:49:09.329Z,12.95
2019-03-20T05:51:37.600Z,13.45
2019-03-20T05:54:05.882Z,13.13
2019-03-20T05:56:34.144Z,15.43
2019-03-20T05:59:02.426Z,16.20
2019-03-20T06:01:30.708Z,14.67
2019-03-20T06:03:58.977Z,15.78
2019-03-20T06:06:27.255Z,16.17
2019-03-20T06:11:51.070Z,15.70
2019-03-20T06:14:19.355Z,15.37
2019-03-20T06:16:47.634Z,16.43
2019-03-20T06:19:15.909Z,16.70
2019-03-20T06:21:44.188Z,15.93
2019-03-20T06:24:12.469Z,16.93
2019-03-20T06:26:53.204Z,18.27
2019-03-20T06:29:21.522Z,15.60
2019-03-20T06:31:49.799Z,16.97
2019-03-20T06:34:18.075Z,17.50
2019-03-20T06:36:46.354Z,19.30
2019-03-20T06:39:14.632Z,17.42
2019-03-20T06:41:42.893Z,19.70
2019-03-20T06:44:11.187Z,16.53
2019-03-20T06:50:13.045Z,18.98
2019-03-20T06:52:41.318Z,18.67
2019-03-20T06:58:25.574Z,19.77
2019-03-20T07:14:16.507Z,19.95
2019-03-20T07:16:44.790Z,19.83
2019-03-20T07:19:13.053Z,20.20
2019-03-20T07:21:41.326Z,21.60
2019-03-20T07:24:09.594Z,21.40
2019-03-20T07:26:37.852Z,20.90
2019-03-20T07:29:06.132Z,20.83
2019-03-20T07:31:34.403Z,19.47
2019-03-20T07:34:21.374Z,22.65
2019-03-20T07:39:57.938Z,22.40
2019-03-20T07:42:26.217Z,23.07
2019-03-20T07:44:54.480Z,21.73
2019-03-20T07:47:22.794Z,22.27
2019-03-20T07:52:44.519Z,23.03
2019-03-20T07:55:12.786Z,21.67
2019-03-20T07:57:41.063Z,23.87
2019-03-20T08:03:29.899Z,24.25
2019-03-20T08:05:58.172Z,23.00
2019-03-20T08:08:26.449Z,24.23
2019-03-20T08:10:54.733Z,23.35
2019-03-20T08:13:22.995Z,22.30
2019-03-20T08:18:52.922Z,24.77
2019-03-20T08:21:21.187Z,26.43
2019-03-20T08:23:49.463Z,29.07
2019-03-20T08:26:17.778Z,24.57
2019-03-20T08:28:46.048Z,26.10
2019-03-20T08:31:14.325Z,25.40
2019-03-20T08:33:42.585Z,27.20
2019-03-20T08:36:10.881Z,25.27
2019-03-20T08:38:39.138Z,25.43
2019-03-20T08:41:07.404Z,24.13
2019-03-20T08:43:35.680Z,24.55
2019-03-20T08:46:03.949Z,24.25
2019-03-20T08:48:32.226Z,25.30
2019-03-20T08:51:00.507Z,24.00
2019-03-20T08:53:28.762Z,22.63
2019-03-20T08:55:57.053Z,23.63
2019-03-20T08:58:25.330Z,22.30
2019-03-20T09:00:53.608Z,22.98
2019-03-20T09:06:42.464Z,25.62
2019-03-20T09:09:10.724Z,22.77
2019-03-20T09:11:38.994Z,23.90
2019-03-20T09:14:07.260Z,24.27
2019-03-20T09:16:35.536Z,22.93
2019-03-20T09:19:03.812Z,22.07
2019-03-20T09:21:32.103Z,23.93
2019-03-20T09:24:00.373Z,23.92
2019-03-20T09:26:28.651Z,22.37
2019-03-20T09:28:56.926Z,22.63
2019-03-20T09:31:25.224Z,23.03
2019-03-20T09:37:11.152Z,23.03
2019-03-20T09:39:39.418Z,22.70
2019-03-20T09:42:07.680Z,22.40
2019-03-20T09:44:35.956Z,20.57
2019-03-20T09:47:04.221Z,21.62
2019-03-20T09:49:32.782Z,21.77
2019-03-20T09:52:38.571Z,22.77
2019-03-20T10:01:25.669Z,19.52
2019-03-20T10:03:53.951Z,23.22
2019-03-20T10:06:22.231Z,23.00
2019-03-20T10:09:08.575Z,22.05
2019-03-20T10:11:36.844Z,20.93
2019-03-20T10:16:52.508Z,21.87
2019-03-20T10:19:20.790Z,20.68
2019-03-20T10:21:49.054Z,22.22
2019-03-20T10:24:17.332Z,21.77
2019-03-20T10:26:45.605Z,20.60
2019-03-20T10:29:13.893Z,21.07
2019-03-20T10:31:42.159Z,22.57
2019-03-20T10:34:10.427Z,23.50
2019-03-20T10:36:38.696Z,22.67
2019-03-20T10:42:18.272Z,23.67
2019-03-20T10:44:46.523Z,22.47
2019-03-20T10:47:16.852Z,22.90
2019-03-20T10:49:45.126Z,22.73
2019-03-20T10:52:15.117Z,22.07
2019-03-20T10:55:17.086Z,23.30
2019-03-20T10:57:45.448Z,23.00
2019-03-20T11:03:24.873Z,26.00
2019-03-20T11:05:53.154Z,25.27
2019-03-20T11:08:21.435Z,26.27
2019-03-20T11:10:49.731Z,24.33
2019-03-20T11:13:18.069Z,24.43
2019-03-20T11:21:27.658Z,24.00
2019-03-20T11:23:56.080Z,26.20
2019-03-20T11:26:24.345Z,24.75
2019-03-20T11:28:52.626Z,24.90
2019-03-20T11:31:20.898Z,25.30
2019-03-20T11:33:49.190Z,27.65
2019-03-20T11:36:17.449Z,26.50
2019-03-20T11:38:45.740Z,26.53
2019-03-20T11:41:14.003Z,28.25
2019-03-20T11:43:43.017Z,25.23
2019-03-20T11:46:11.290Z,27.65
2019-03-20T11:51:35.106Z,25.90
2019-03-20T11:54:03.382Z,26.43
2019-03-20T11:59:27.790Z,26.13
2019-03-20T12:01:56.051Z,26.62
2019-03-20T12:04:24.310Z,25.50
2019-03-20T12:09:59.030Z,30.33
2019-03-20T12:12:28.002Z,28.37
2019-03-20T12:14:56.290Z,26.47
2019-03-20T12:17:24.600Z,27.60
2019-03-20T12:25:49.853Z,28.63
2019-03-20T12:28:18.129Z,29.93
2019-03-20T12:30:46.413Z,28.33
2019-03-20T12:33:14.684Z,32.00
2019-03-20T12:38:38.494Z,33.90
2019-03-20T12:41:06.767Z,33.10
2019-03-20T12:46:22.373Z,32.40
2019-03-20T12:49:06.413Z,35.58
2019-03-20T13:01:31.839Z,34.60
2019-03-20T13:04:00.124Z,36.03
2019-03-20T13:09:25.718Z,33.13
2019-03-20T13:11:53.992Z,35.17
2019-03-20T13:14:22.299Z,33.40
2019-03-20T13:16:50.563Z,35.57
2019-03-20T13:19:18.846Z,35.43
2019-03-20T13:21:47.681Z,35.10
2019-03-20T13:24:17.130Z,37.47
2019-03-20T13:26:45.401Z,34.80
2019-03-20T13:29:13.672Z,34.03
2019-03-20T13:31:41.972Z,33.00
2019-03-20T13:34:10.255Z,34.90
2019-03-20T13:36:38.524Z,33.33
2019-03-20T13:42:14.279Z,34.23
2019-03-20T13:44:42.551Z,30.77
2019-03-20T13:47:10.831Z,35.35
2019-03-20T13:49:39.102Z,33.55
2019-03-20T13:52:07.383Z,33.42
2019-03-20T13:54:35.659Z,32.60
2019-03-20T14:03:18.298Z,32.37
2019-03-20T14:05:46.571Z,32.63
2019-03-20T14:11:33.655Z,33.35
2019-03-20T14:14:01.933Z,34.70
2019-03-20T14:16:30.200Z,34.47
2019-03-20T14:18:58.487Z,33.30
2019-03-20T14:21:26.754Z,33.77
2019-03-20T14:23:55.037Z,40.48
2019-03-20T14:26:23.303Z,37.90
2019-03-20T14:28:51.589Z,36.50
2019-03-20T14:34:37.532Z,37.50
2019-03-20T14:37:05.826Z,37.13
2019-03-20T14:39:34.103Z,39.70
2019-03-20T14:42:02.383Z,39.93
2019-03-20T14:44:30.658Z,39.10
2019-03-20T14:46:58.931Z,39.78
2019-03-20T14:49:27.213Z,40.78
2019-03-20T14:52:32.665Z,39.43
2019-03-20T14:55:00.947Z,41.83
2019-03-20T14:57:29.216Z,42.53
2019-03-20T14:59:57.501Z,41.68
2019-03-20T15:02:25.781Z,42.10
2019-03-20T15:04:54.049Z,41.95
2019-03-20T15:07:22.329Z,46.53
2019-03-20T15:09:50.602Z,40.23
2019-03-20T15:12:18.892Z,42.83
2019-03-20T15:14:47.214Z,45.23
2019-03-20T15:17:15.518Z,44.63
2019-03-20T15:19:43.800Z,41.07
2019-03-20T15:22:12.076Z,41.70
2019-03-20T15:25:11.580Z,44.10
2019-03-20T15:27:10.367Z,42.37
2019-03-20T15:29:38.644Z,41.30
2019-03-20T15:35:15.998Z,43.80
2019-03-20T15:37:44.335Z,45.63
2019-03-20T15:40:55.863Z,41.87
2019-03-20T15:43:17.908Z,47.60
2019-03-20T15:45:46.183Z,48.77
2019-03-20T15:48:14.463Z,44.10
2019-03-20T15:50:42.739Z,48.40
2019-03-20T15:53:11.024Z,48.55
2019-03-20T15:56:13.941Z,47.20
2019-03-20T15:58:42.239Z,43.43
2019-03-20T16:01:10.514Z,44.83
2019-03-20T16:04:13.221Z,42.83
2019-03-20T16:06:41.491Z,44.00
2019-03-20T16:09:09.783Z,43.30
2019-03-20T16:11:38.063Z,40.87
2019-03-20T16:14:06.360Z,44.30
2019-03-20T16:16:34.629Z,43.13
2019-03-20T16:19:02.909Z,42.27
2019-03-20T16:21:31.194Z,42.57
2019-03-20T16:23:59.464Z,42.00
2019-03-20T16:26:27.741Z,41.60
2019-03-20T16:28:56.015Z,43.80
2019-03-20T16:31:24.302Z,41.30
2019-03-20T16:39:53.426Z,41.67
2019-03-20T16:42:21.702Z,41.93
2019-03-20T16:44:49.991Z,41.30
2019-03-20T16:47:18.269Z,43.50
2019-03-20T16:49:46.550Z,42.58
2019-03-20T16:52:15.702Z,42.87
2019-03-20T16:54:44.816Z,42.00
2019-03-20T17:09:23.242Z,49.20
2019-03-20T17:11:51.527Z,45.80
2019-03-20T17:17:17.255Z,48.60
2019-03-20T17:19:45.524Z,51.80
2019-03-20T17:22:13.831Z,53.47
2019-03-20T17:24:42.040Z,54.60
2019-03-20T17:27:10.313Z,52.83
2019-03-20T17:29:38.743Z,55.25
2019-03-20T17:32:07.013Z,53.05
2019-03-20T17:34:35.289Z,52.97
2019-03-20T17:39:52.563Z,55.40
2019-03-20T17:42:20.902Z,56.13
2019-03-20T17:44:49.239Z,53.87
2019-03-20T17:47:17.523Z,56.00
2019-03-20T17:52:45.864Z,55.33
2019-03-20T17:55:14.277Z,56.03
2019-03-20T17:57:57.696Z,60.63
2019-03-20T18:03:35.261Z,57.43
2019-03-20T18:06:03.602Z,56.70
2019-03-20T18:08:31.900Z,56.55
2019-03-20T18:11:00.157Z,56.60
2019-03-20T18:13:28.443Z,56.45
2019-03-20T18:15:56.719Z,56.97
2019-03-20T18:21:45.929Z,51.07
2019-03-20T18:27:31.750Z,52.17
2019-03-20T18:30:00.389Z,52.45
2019-03-20T18:32:28.679Z,53.40
2019-03-20T18:34:56.977Z,53.17
2019-03-20T18:37:25.265Z,53.55
2019-03-20T18:40:07.399Z,52.10
2019-03-20T18:42:35.711Z,52.88
2019-03-20T18:45:35.546Z,49.83
2019-03-20T18:51:11.986Z,51.58
2019-03-20T18:53:40.635Z,52.10
2019-03-20T18:56:08.935Z,51.43
2019-03-20T18:58:37.227Z,52.77
2019-03-20T19:01:05.530Z,49.98
2019-03-20T19:04:05.066Z,50.87
2019-03-20T19:06:33.341Z,49.17
2019-03-20T19:09:01.622Z,48.08
2019-03-20T19:11:29.914Z,49.05
2019-03-20T19:13:58.187Z,46.95
2019-03-20T19:16:26.465Z,47.17
2019-03-20T19:18:54.757Z,46.63
2019-03-20T19:21:23.042Z,45.13
2019-03-20T19:23:51.361Z,46.00
2019-03-20T19:26:19.637Z,47.48
2019-03-20T19:28:47.929Z,46.60
2019-03-20T19:31:16.216Z,46.30
2019-03-20T19:33:44.493Z,46.68
2019-03-20T19:36:12.766Z,46.37
2019-03-20T19:38:41.096Z,42.93
2019-03-20T19:41:09.392Z,45.70
2019-03-20T19:43:37.670Z,43.90
2019-03-20T19:46:05.988Z,45.53
2019-03-20T19:48:34.266Z,46.67
2019-03-20T19:51:02.614Z,43.07
2019-03-20T19:53:30.896Z,46.80
2019-03-20T19:55:59.179Z,43.87
2019-03-20T19:58:27.450Z,46.95
2019-03-20T20:00:55.763Z,47.40
2019-03-20T20:03:24.037Z,45.20
2019-03-20T20:14:56.596Z,43.17
2019-03-20T20:17:24.878Z,46.00
2019-03-20T20:19:53.148Z,45.00
2019-03-20T20:25:16.931Z,48.20
2019-03-20T20:27:45.200Z,46.20
2019-03-20T20:33:09.035Z,45.40
2019-03-20T20:35:37.316Z,46.60
2019-03-20T20:38:05.581Z,47.73
2019-03-20T20:40:33.863Z,48.03
2019-03-20T20:43:02.141Z,48.50
2019-03-20T20:45:30.431Z,47.73
2019-03-20T20:47:58.710Z,48.60
2019-03-20T20:50:26.984Z,52.50
2019-03-20T20:52:55.258Z,52.33
2019-03-20T20:58:44.972Z,49.97
2019-03-20T21:01:13.242Z,48.20
2019-03-20T21:03:41.930Z,51.10
2019-03-20T21:06:10.201Z,50.13
2019-03-20T21:08:38.481Z,48.67
2019-03-20T21:11:06.753Z,50.90
2019-03-20T21:13:35.032Z,48.90
2019-03-20T21:16:03.371Z,50.28
2019-03-20T21:25:01.889Z,47.58
2019-03-20T21:39:35.947Z,47.57
2019-03-20T21:48:45.494Z,47.03
2019-03-20T22:03:19.693Z,47.10
2019-03-20T22:06:24.674Z,44.40
2019-03-20T22:08:52.969Z,44.50
2019-03-20T22:30:15.500Z,48.17
2019-03-20T22:35:51.249Z,44.60
2019-03-20T23:07:32.099Z,44.13
2019-03-20T23:13:06.318Z,45.65
2019-03-20T23:15:34.609Z,45.87
2019-03-20T23:18:02.882Z,45.40
2019-03-20T23:23:52.181Z,43.20
2019-03-20T23:26:20.465Z,43.25
2019-03-20T23:28:48.739Z,44.23
2019-03-20T23:31:17.020Z,43.87
2019-03-20T23:33:45.303Z,43.67
2019-03-20T23:36:13.593Z,45.47
2019-03-20T23:38:41.860Z,44.17
2019-03-20T23:41:10.136Z,44.63
2019-03-20T23:53:41.791Z,44.48
2019-03-20T23:59:07.472Z,45.40
